Time;durP1;ratioP1;P1;durP2;ratioP2;P2;SDS_P1;SDS_P2;PMS_P1;PMS_P2;Temp;Humidity;BMP_temperature;BMP_pressure;BME280_temperature;BME280_humidity;BME280_pressure;Samples;Min_cycle;Max_cycle;Signal;HPM_P1;HPM_P2
2023/02/17 00:01:32;;;;;;;10.50;6.72;;;18.40;49.30;;;;;;5098335;28;20153;-87
2023/02/17 00:04:00;;;;;;;12.93;7.53;;;18.40;49.30;;;;;;5082281;28;20161;-86
2023/02/17 00:06:28;;;;;;;11.38;6.90;;;18.40;49.30;;;;;;5082313;28;20160;-87
2023/02/17 00:08:58;;;;;;;14.15;7.10;;;18.40;49.30;;;;;;5082487;28;20169;-88
2023/02/17 00:11:24;;;;;;;11.77;7.10;;;18.40;49.30;;;;;;5083009;28;20255;-87
2023/02/17 00:13:50;;;;;;;12.65;7.10;;;18.40;49.40;;;;;;5082056;28;20199;-87
2023/02/17 00:16:17;;;;;;;12.13;6.72;;;18.40;49.40;;;;;;5081871;28;20171;-86
2023/02/17 00:18:44;;;;;;;9.38;6.78;;;18.40;49.50;;;;;;5098186;28;20187;-87
2023/02/17 00:21:13;;;;;;;12.68;7.53;;;18.40;49.30;;;;;;5081480;28;20514;-87
2023/02/17 00:23:40;;;;;;;11.90;6.68;;;18.40;49.50;;;;;;5080704;28;20256;-86
2023/02/17 00:26:06;;;;;;;10.15;7.05;;;18.40;49.40;;;;;;5098721;28;20628;-86
2023/02/17 00:28:33;;;;;;;14.60;7.25;;;18.40;49.50;;;;;;5098574;28;20153;-86
2023/02/17 00:31:13;;;;;;;11.65;7.07;;;18.30;49.60;;;;;;5081733;28;20172;-86
2023/02/17 00:33:38;;;;;;;12.38;7.40;;;18.30;49.70;;;;;;5097981;28;20153;-87
2023/02/17 00:36:09;;;;;;;12.70;7.35;;;18.30;49.60;;;;;;5081095;28;20246;-86
2023/02/17 00:38:37;;;;;;;10.98;6.95;;;18.30;49.60;;;;;;5097910;28;20191;-87
2023/02/17 00:41:03;;;;;;;10.63;6.93;;;18.30;49.60;;;;;;5080396;28;20164;-87
2023/02/17 00:43:30;;;;;;;9.98;6.70;;;18.30;49.60;;;;;;5081797;28;20169;-86
2023/02/17 00:46:02;;;;;;;12.98;7.35;;;18.30;49.60;;;;;;5081579;28;20578;-86
2023/02/17 00:48:29;;;;;;;10.75;6.53;;;18.30;49.70;;;;;;5081655;28;20173;-87
2023/02/17 00:50:56;;;;;;;11.80;6.72;;;18.30;49.80;;;;;;5098752;28;20164;-86
2023/02/17 00:53:24;;;;;;;12.85;7.15;;;18.30;49.60;;;;;;5080509;28;20161;-87
2023/02/17 00:55:55;;;;;;;12.38;7.30;;;18.30;49.70;;;;;;5081344;28;20160;-87
2023/02/17 00:58:20;;;;;;;10.45;6.72;;;18.30;49.80;;;;;;5080225;28;20188;-86
2023/02/17 01:00:54;;;;;;;10.65;6.93;;;18.20;49.80;;;;;;5082218;28;20172;-86
2023/02/17 01:03:25;;;;;;;12.30;6.95;;;18.20;49.70;;;;;;5082194;28;20169;-87
2023/02/17 01:05:53;;;;;;;11.45;6.78;;;18.20;49.80;;;;;;5081513;28;20164;-88
2023/02/17 01:08:19;;;;;;;11.35;7.00;;;18.20;50.00;;;;;;5081904;28;20242;-86
2023/02/17 01:10:47;;;;;;;9.27;6.25;;;18.20;49.90;;;;;;5097759;28;20532;-86
2023/02/17 01:13:14;;;;;;;13.20;6.93;;;18.20;49.70;;;;;;5081333;28;20176;-86
2023/02/17 01:15:42;;;;;;;10.02;6.90;;;18.30;49.80;;;;;;5098198;28;20156;-86
2023/02/17 01:18:08;;;;;;;11.00;6.85;;;18.30;49.90;;;;;;5080772;28;20388;-87
2023/02/17 01:20:35;;;;;;;11.05;7.00;;;18.20;49.90;;;;;;5080007;28;20161;-86
2023/02/17 01:23:07;;;;;;;11.95;7.25;;;18.20;49.80;;;;;;5080840;28;20161;-87
2023/02/17 01:25:38;;;;;;;13.15;7.05;;;18.20;49.90;;;;;;5080537;28;20164;-87
2023/02/17 01:28:05;;;;;;;11.98;7.22;;;18.20;49.90;;;;;;5080048;28;20259;-87
2023/02/17 01:30:31;;;;;;;12.43;7.03;;;18.20;49.90;;;;;;5097252;28;20141;-87
2023/02/17 01:33:00;;;;;;;12.68;6.88;;;18.20;49.90;;;;;;5097109;28;20678;-87
2023/02/17 01:35:27;;;;;;;9.23;6.80;;;18.20;49.90;;;;;;5080316;28;20157;-86
2023/02/17 01:37:54;;;;;;;10.52;6.38;;;18.20;50.00;;;;;;5079673;28;20172;-88
2023/02/17 01:40:23;;;;;;;10.05;6.30;;;18.20;49.90;;;;;;5096788;28;20184;-87
2023/02/17 01:42:53;;;;;;;10.63;6.78;;;18.20;49.80;;;;;;5079642;28;20165;-86
2023/02/17 01:45:32;;;;;;;11.93;6.90;;;18.20;50.00;;;;;;5079454;28;20210;-87
2023/02/17 01:48:01;;;;;;;12.32;7.13;;;18.20;50.00;;;;;;5080185;28;20251;-87
2023/02/17 01:50:40;;;;;;;11.68;6.80;;;18.20;50.00;;;;;;5079433;28;20171;-86
2023/02/17 01:53:15;;;;;;;11.93;6.75;;;18.10;50.00;;;;;;5078114;28;20184;-88
2023/02/17 01:55:41;;;;;;;12.70;7.05;;;18.20;50.00;;;;;;5079493;28;20628;-86
2023/02/17 01:58:10;;;;;;;10.93;6.45;;;18.20;49.90;;;;;;5079110;28;20256;-87
2023/02/17 02:00:37;;;;;;;10.13;6.55;;;18.20;50.00;;;;;;5079027;28;20713;-87
2023/02/17 02:03:03;;;;;;;10.35;6.50;;;18.20;50.00;;;;;;5078477;28;20576;-87
2023/02/17 02:05:29;;;;;;;9.65;6.53;;;18.10;50.00;;;;;;5095658;28;20151;-87
2023/02/17 02:07:56;;;;;;;11.43;6.63;;;18.10;50.00;;;;;;5096090;28;20141;-87
2023/02/17 02:10:36;;;;;;;9.43;6.35;;;18.10;50.00;;;;;;5079514;28;20161;-86
2023/02/17 02:13:01;;;;;;;10.43;6.63;;;18.20;50.00;;;;;;5095447;28;20148;-87
2023/02/17 02:15:34;;;;;;;10.80;6.60;;;18.20;50.10;;;;;;5078329;28;20168;-87
2023/02/17 02:18:15;;;;;;;9.88;6.40;;;18.10;50.00;;;;;;5077834;28;20164;-87
2023/02/17 02:21:06;;;;;;;10.35;6.40;;;18.10;50.00;;;;;;5095683;28;20164;-86
2023/02/17 02:24:05;;;;;;;10.93;6.53;;;18.10;50.10;;;;;;5080887;28;20174;-86
2023/02/17 02:26:48;;;;;;;11.35;6.88;;;18.10;50.30;;;;;;5078379;28;20168;-86
2023/02/17 02:29:36;;;;;;;10.07;6.82;;;18.10;50.20;;;;;;5078896;28;20169;-86
2023/02/17 02:32:36;;;;;;;11.63;6.78;;;18.10;50.20;;;;;;5095741;28;20222;-88
2023/02/17 02:35:17;;;;;;;11.48;7.00;;;18.10;50.20;;;;;;5097005;28;20251;-87
2023/02/17 02:37:52;;;;;;;10.30;6.20;;;18.00;50.30;;;;;;5078717;28;20615;-86
2023/02/17 02:40:20;;;;;;;9.13;6.28;;;18.00;50.20;;;;;;5078657;28;20291;-86
2023/02/17 02:42:46;;;;;;;12.10;6.63;;;18.00;50.30;;;;;;5095832;28;20153;-87
2023/02/17 02:45:14;;;;;;;10.50;6.70;;;18.10;50.30;;;;;;5079450;28;20214;-87
2023/02/17 02:47:50;;;;;;;9.60;6.32;;;18.10;50.30;;;;;;5095562;28;20239;-86
2023/02/17 02:50:46;;;;;;;11.85;6.43;;;18.10;50.10;;;;;;5079367;28;20217;-87
2023/02/17 02:53:46;;;;;;;11.30;6.40;;;18.00;50.20;;;;;;5095945;28;20168;-87
2023/02/17 02:56:39;;;;;;;10.65;6.22;;;18.00;50.30;;;;;;5095641;28;20156;-87
2023/02/17 02:59:19;;;;;;;9.55;6.28;;;18.10;50.20;;;;;;5094873;28;20244;-87
2023/02/17 03:02:22;;;;;;;10.60;6.35;;;18.00;50.30;;;;;;5078791;28;20164;-87
2023/02/17 03:05:06;;;;;;;9.50;6.10;;;18.00;50.30;;;;;;5081569;28;20173;-86
2023/02/17 03:07:49;;;;;;;10.07;6.10;;;18.00;50.20;;;;;;5084382;28;20614;-86
2023/02/17 03:10:18;;;;;;;12.63;6.22;;;18.00;50.30;;;;;;5082614;28;20175;-88
2023/02/17 03:12:47;;;;;;;10.05;6.35;;;18.00;50.30;;;;;;5082427;28;20172;-86
2023/02/17 03:15:24;;;;;;;9.77;6.50;;;18.00;50.30;;;;;;5081278;28;20175;-87
2023/02/17 03:17:52;;;;;;;10.32;6.45;;;18.00;50.30;;;;;;5081912;28;20698;-86
2023/02/17 03:20:18;;;;;;;8.55;5.90;;;18.00;50.20;;;;;;5082661;28;20326;-86
2023/02/17 03:22:46;;;;;;;9.63;6.63;;;18.00;50.30;;;;;;5081497;28;20165;-86
2023/02/17 03:25:16;;;;;;;9.73;6.30;;;18.00;50.30;;;;;;5082473;28;20169;-86
2023/02/17 03:27:42;;;;;;;10.05;6.07;;;18.10;50.30;;;;;;5082178;28;20169;-87
2023/02/17 03:30:10;;;;;;;8.77;5.93;;;18.00;50.40;;;;;;5082414;28;20190;-85
2023/02/17 03:32:37;;;;;;;10.57;6.22;;;17.90;50.20;;;;;;5098519;28;20180;-87
2023/02/17 03:35:04;;;;;;;10.55;6.57;;;18.10;50.40;;;;;;5098529;28;20176;-87
2023/02/17 03:37:33;;;;;;;11.85;6.93;;;18.00;50.30;;;;;;5081728;28;20638;-87
2023/02/17 03:40:02;;;;;;;9.35;6.03;;;18.00;50.30;;;;;;5082055;28;20211;-86
2023/02/17 03:42:28;;;;;;;8.32;5.85;;;18.00;50.40;;;;;;5098554;28;20645;-86
2023/02/17 03:44:55;;;;;;;10.07;6.22;;;18.00;50.30;;;;;;5082178;28;20164;-87
2023/02/17 03:47:21;;;;;;;9.65;6.35;;;18.00;50.20;;;;;;5081932;28;20206;-87
2023/02/17 03:49:52;;;;;;;10.68;6.68;;;18.00;50.20;;;;;;5082471;28;20169;-87
2023/02/17 03:52:18;;;;;;;7.72;5.45;;;18.00;50.30;;;;;;5081848;28;20178;-86
2023/02/17 03:54:44;;;;;;;10.27;6.63;;;18.00;50.30;;;;;;5082022;28;20165;-86
2023/02/17 03:57:15;;;;;;;9.38;6.38;;;18.00;50.10;;;;;;5082383;28;20172;-86
2023/02/17 03:59:41;;;;;;;10.63;6.13;;;18.10;50.20;;;;;;5081339;28;20217;-86
2023/02/17 04:02:14;;;;;;;10.00;6.55;;;18.00;50.10;;;;;;5098439;28;20165;-86
2023/02/17 04:04:40;;;;;;;10.23;6.13;;;18.00;50.20;;;;;;5098470;28;20160;-86
2023/02/17 04:07:10;;;;;;;9.15;6.35;;;18.00;50.30;;;;;;5098552;28;20153;-87
2023/02/17 04:09:36;;;;;;;9.95;6.03;;;18.00;50.30;;;;;;5082068;28;20175;-86
2023/02/17 04:12:04;;;;;;;11.52;5.88;;;18.00;50.30;;;;;;5081628;28;20164;-87
2023/02/17 04:14:29;;;;;;;8.45;5.57;;;18.00;50.30;;;;;;5080447;28;20177;-86
2023/02/17 04:16:56;;;;;;;9.30;6.18;;;17.90;50.40;;;;;;5080916;28;20207;-86
2023/02/17 04:19:22;;;;;;;9.45;6.03;;;18.00;50.40;;;;;;5097700;28;20234;-87
2023/02/17 04:21:51;;;;;;;8.63;5.65;;;18.00;50.40;;;;;;5080539;28;20164;-86
2023/02/17 04:24:18;;;;;;;8.70;5.88;;;17.90;50.30;;;;;;5080613;28;20503;-86
2023/02/17 04:26:45;;;;;;;9.93;5.93;;;18.00;50.30;;;;;;5080602;28;20165;-87
2023/02/17 04:29:11;;;;;;;9.05;5.97;;;18.00;50.30;;;;;;5080527;28;20169;-87
2023/02/17 04:31:38;;;;;;;8.57;5.70;;;17.90;50.30;;;;;;5080267;28;20173;-87
2023/02/17 04:34:04;;;;;;;9.10;6.03;;;17.90;50.30;;;;;;5097553;28;20156;-87
2023/02/17 04:36:30;;;;;;;9.48;5.90;;;18.00;50.30;;;;;;5080708;28;20160;-87
2023/02/17 04:38:58;;;;;;;8.13;5.40;;;18.00;50.30;;;;;;5080517;28;20216;-86
2023/02/17 04:41:24;;;;;;;8.73;5.57;;;18.00;50.30;;;;;;5097143;28;20244;-88
2023/02/17 04:43:50;;;;;;;8.82;5.60;;;18.00;50.30;;;;;;5081011;28;20183;-86
2023/02/17 04:46:16;;;;;;;11.05;6.13;;;18.00;50.10;;;;;;5096672;28;20153;-86
2023/02/17 04:48:44;;;;;;;10.30;5.82;;;18.00;50.20;;;;;;5096629;28;20517;-87
2023/02/17 04:51:10;;;;;;;10.65;5.88;;;18.00;50.20;;;;;;5080158;28;20161;-87
2023/02/17 04:53:37;;;;;;;8.32;5.38;;;18.00;50.30;;;;;;5080267;28;20217;-87
2023/02/17 04:56:05;;;;;;;8.40;5.57;;;18.00;50.20;;;;;;5079457;28;20195;-86
2023/02/17 04:58:31;;;;;;;8.30;5.50;;;18.00;50.30;;;;;;5096779;28;20184;-87
2023/02/17 05:00:59;;;;;;;8.52;6.28;;;17.90;50.30;;;;;;5097194;28;20298;-86
2023/02/17 05:03:26;;;;;;;10.00;5.90;;;18.00;50.30;;;;;;5096836;28;20181;-87
2023/02/17 05:05:52;;;;;;;9.43;6.05;;;17.90;50.30;;;;;;5095911;28;20165;-87
2023/02/17 05:08:23;;;;;;;9.93;6.15;;;17.90;50.20;;;;;;5079221;28;20215;-86
2023/02/17 05:10:53;;;;;;;8.30;5.45;;;17.90;50.20;;;;;;5096139;28;20157;-86
2023/02/17 05:13:18;;;;;;;8.18;5.90;;;18.00;50.40;;;;;;5079888;28;20170;-87
2023/02/17 05:15:56;;;;;;;9.95;5.97;;;18.00;50.30;;;;;;5096539;28;20687;-86
2023/02/17 05:18:23;;;;;;;7.93;5.72;;;18.00;50.30;;;;;;5096017;28;20191;-85
2023/02/17 05:20:54;;;;;;;9.18;5.75;;;18.00;50.30;;;;;;5095714;28;20155;-87
2023/02/17 05:23:19;;;;;;;8.55;5.80;;;17.90;50.40;;;;;;5095968;28;20180;-87
2023/02/17 05:25:47;;;;;;;8.23;5.90;;;17.90;50.20;;;;;;5096120;28;20203;-86
2023/02/17 05:28:14;;;;;;;10.48;6.10;;;17.90;50.30;;;;;;5096602;28;20168;-87
2023/02/17 05:30:40;;;;;;;8.85;5.93;;;17.90;50.40;;;;;;5078962;28;20161;-86
2023/02/17 05:33:07;;;;;;;7.43;5.50;;;17.90;50.30;;;;;;5095534;28;20149;-86
2023/02/17 05:35:34;;;;;;;9.38;5.82;;;17.90;50.10;;;;;;5095953;28;20160;-86
2023/02/17 05:38:03;;;;;;;8.38;5.53;;;17.90;50.10;;;;;;5078442;28;20171;-86
2023/02/17 05:40:30;;;;;;;9.07;5.65;;;17.90;50.40;;;;;;5078872;28;20217;-87
2023/02/17 05:42:57;;;;;;;10.43;5.50;;;17.90;50.40;;;;;;5095834;28;20149;-86
2023/02/17 05:45:23;;;;;;;8.23;5.55;;;17.90;51.10;;;;;;5095847;28;20187;-87
2023/02/17 05:47:48;;;;;;;10.13;5.78;;;17.90;50.30;;;;;;5095645;28;20148;-86
2023/02/17 05:50:14;;;;;;;9.07;5.88;;;17.90;50.30;;;;;;5079748;28;20196;-86
2023/02/17 05:52:42;;;;;;;9.70;6.43;;;17.90;50.20;;;;;;5079100;28;20172;-87
2023/02/17 05:55:08;;;;;;;9.00;5.50;;;17.90;50.30;;;;;;5081398;28;20172;-86
2023/02/17 05:57:39;;;;;;;8.93;5.60;;;17.90;50.40;;;;;;5081198;28;20698;-86
2023/02/17 06:00:07;;;;;;;8.75;5.57;;;17.90;50.50;;;;;;5097863;28;20224;-86
2023/02/17 06:02:34;;;;;;;8.50;5.45;;;17.90;50.50;;;;;;5080758;28;20519;-87
2023/02/17 06:05:00;;;;;;;9.73;5.55;;;17.80;50.50;;;;;;5080429;28;20164;-87
2023/02/17 06:07:25;;;;;;;9.02;5.40;;;17.80;50.50;;;;;;5080457;28;20179;-86
2023/02/17 06:09:51;;;;;;;8.55;5.53;;;17.80;50.50;;;;;;5096737;28;20294;-86
2023/02/17 06:12:17;;;;;;;8.25;5.35;;;17.80;51.30;;;;;;5080054;28;20187;-86
2023/02/17 06:14:42;;;;;;;9.10;5.40;;;17.80;50.50;;;;;;5081170;28;20271;-86
2023/02/17 06:17:12;;;;;;;8.80;5.40;;;17.80;50.60;;;;;;5081971;28;20176;-86
2023/02/17 06:19:37;;;;;;;7.68;4.93;;;17.80;50.50;;;;;;5083028;28;20248;-86
2023/02/17 06:22:05;;;;;;;9.00;5.78;;;17.80;50.50;;;;;;5082310;28;20164;-87
2023/02/17 06:24:31;;;;;;;6.65;5.03;;;17.90;50.50;;;;;;5081596;28;20165;-87
2023/02/17 06:27:00;;;;;;;9.40;5.82;;;17.90;50.50;;;;;;5098860;28;20180;-86
2023/02/17 06:29:27;;;;;;;7.75;5.32;;;17.90;50.40;;;;;;5083378;28;20165;-87
2023/02/17 06:31:54;;;;;;;8.77;6.03;;;17.80;50.50;;;;;;5096630;28;20149;-87
2023/02/17 06:34:22;;;;;;;9.00;5.57;;;17.70;50.50;;;;;;5081285;28;20172;-86
2023/02/17 06:36:50;;;;;;;9.50;5.75;;;17.80;50.60;;;;;;5099449;28;20164;-86
2023/02/17 06:39:16;;;;;;;7.68;5.45;;;17.80;50.70;;;;;;5102310;28;20204;-86
2023/02/17 06:41:42;;;;;;;9.95;5.90;;;17.80;51.30;;;;;;5103033;28;20209;-85
2023/02/17 06:44:08;;;;;;;7.78;5.53;;;17.80;50.60;;;;;;5087138;28;20661;-85
2023/02/17 06:46:35;;;;;;;8.00;5.63;;;17.80;50.70;;;;;;5088996;28;20160;-86
2023/02/17 06:49:02;;;;;;;9.57;5.57;;;17.80;50.80;;;;;;5089388;28;20171;-86
2023/02/17 06:51:35;;;;;;;9.00;5.53;;;17.80;50.70;;;;;;5089683;28;20164;-86
2023/02/17 06:54:01;;;;;;;7.80;4.82;;;17.80;50.80;;;;;;5086766;28;20171;-86
2023/02/17 06:56:30;;;;;;;7.35;5.20;;;17.70;50.80;;;;;;5103446;28;20149;-85
2023/02/17 06:58:56;;;;;;;7.85;5.50;;;17.80;50.70;;;;;;5102664;28;20314;-85
2023/02/17 07:01:25;;;;;;;8.10;5.53;;;17.80;50.80;;;;;;5104847;28;20152;-87
2023/02/17 07:03:51;;;;;;;7.28;5.30;;;17.80;50.80;;;;;;5089251;28;20214;-86
2023/02/17 07:06:19;;;;;;;8.40;5.15;;;17.80;50.80;;;;;;5087745;28;20194;-87
2023/02/17 07:08:47;;;;;;;8.50;5.28;;;17.80;50.60;;;;;;5087901;28;20168;-86
2023/02/17 07:11:13;;;;;;;9.27;5.63;;;17.80;50.50;;;;;;5087837;28;20169;-87
2023/02/17 07:13:41;;;;;;;8.13;5.57;;;17.80;51.10;;;;;;5105911;28;20641;-86
2023/02/17 07:16:10;;;;;;;8.77;5.43;;;17.80;50.70;;;;;;5089276;28;20180;-87
2023/02/17 07:18:37;;;;;;;8.43;5.80;;;17.80;50.60;;;;;;5088575;28;20210;-86
2023/02/17 07:21:04;;;;;;;11.57;5.90;;;17.80;50.80;;;;;;5104875;28;20152;-86
2023/02/17 07:23:31;;;;;;;9.05;5.68;;;17.80;50.80;;;;;;5106180;28;20160;-86
2023/02/17 07:26:07;;;;;;;7.10;5.10;;;17.80;50.80;;;;;;5105625;28;20175;-86
2023/02/17 07:28:34;;;;;;;8.63;5.28;;;17.80;50.80;;;;;;5089215;28;20160;-87
2023/02/17 07:31:14;;;;;;;7.85;5.28;;;17.80;50.70;;;;;;5104260;28;20183;-87
2023/02/17 07:33:46;;;;;;;7.88;5.40;;;17.80;50.80;;;;;;5106344;28;20156;-86
2023/02/17 07:36:14;;;;;;;10.13;5.10;;;17.80;50.60;;;;;;5107802;28;20165;-86
2023/02/17 07:38:44;;;;;;;7.40;5.07;;;17.80;50.60;;;;;;5089324;28;20191;-87
2023/02/17 07:41:16;;;;;;;7.32;5.22;;;17.80;50.40;;;;;;5104927;28;20187;-88
2023/02/17 07:43:43;;;;;;;6.80;4.95;;;17.90;50.40;;;;;;5107524;28;20690;-86
2023/02/17 07:46:11;;;;;;;9.60;5.15;;;18.00;50.30;;;;;;5089856;28;20177;-87
2023/02/17 07:48:39;;;;;;;7.47;5.05;;;18.00;50.10;;;;;;5089520;28;20247;-87
2023/02/17 07:51:07;;;;;;;6.53;4.65;;;18.00;50.00;;;;;;5088222;28;20207;-87
2023/02/17 07:53:34;;;;;;;7.07;4.97;;;18.00;49.90;;;;;;5125316;28;20161;-87
2023/02/17 07:56:07;;;;;;;6.78;4.63;;;18.10;49.70;;;;;;5090012;28;20627;-87
2023/02/17 07:58:34;;;;;;;10.65;4.50;;;18.20;49.80;;;;;;5108488;28;20195;-87
2023/02/17 08:01:11;;;;;;;6.70;4.20;;;18.20;49.70;;;;;;5069816;28;20181;-87
2023/02/17 08:03:38;;;;;;;9.35;4.40;;;18.20;49.60;;;;;;5087959;28;20179;-86
2023/02/17 08:06:10;;;;;;;7.28;4.88;;;18.20;49.60;;;;;;5085076;28;20178;-86
2023/02/17 08:14:11;;;;;;;8.60;4.18;;;18.20;49.50;;;;;;5082750;28;20200;-87
2023/02/17 08:16:38;;;;;;;9.25;4.57;;;18.20;49.60;;;;;;5010041;28;20186;-86
2023/02/17 08:19:06;;;;;;;8.68;4.25;;;18.20;49.50;;;;;;5025965;28;20214;-86
2023/02/17 08:21:36;;;;;;;9.48;4.70;;;18.20;49.40;;;;;;5009540;28;20337;-86
2023/02/17 08:24:01;;;;;;;7.43;4.25;;;18.30;49.50;;;;;;5025866;28;20159;-86
2023/02/17 08:26:27;;;;;;;9.98;3.97;;;18.30;49.40;;;;;;5009974;28;20206;-86
2023/02/17 08:28:54;;;;;;;7.47;4.28;;;18.30;49.50;;;;;;5009693;28;20596;-86
2023/02/17 08:31:27;;;;;;;6.47;3.92;;;18.30;49.50;;;;;;5006427;28;20229;-86
2023/02/17 08:33:53;;;;;;;7.70;3.88;;;18.30;49.50;;;;;;4987725;28;20583;-87
2023/02/17 08:36:24;;;;;;;6.53;3.97;;;18.30;49.40;;;;;;4995069;28;20182;-86
2023/02/17 08:38:51;;;;;;;5.70;3.95;;;18.30;49.40;;;;;;5041996;28;20214;-86
2023/02/17 08:41:23;;;;;;;10.60;4.30;;;18.30;49.30;;;;;;5042318;28;20657;-87
2023/02/17 08:43:53;;;;;;;6.93;3.53;;;18.30;49.30;;;;;;5043329;28;20213;-87
2023/02/17 08:46:21;;;;;;;6.53;3.65;;;18.30;49.30;;;;;;5043660;28;20183;-87
2023/02/17 08:48:51;;;;;;;7.82;4.50;;;18.30;49.40;;;;;;5061936;28;20235;-87
2023/02/17 08:51:22;;;;;;;9.05;3.60;;;18.30;49.30;;;;;;5077393;28;20185;-85
2023/02/17 08:53:49;;;;;;;11.00;4.05;;;18.30;49.40;;;;;;5060261;28;20181;-85
2023/02/17 08:56:18;;;;;;;13.70;4.60;;;18.30;49.40;;;;;;5060680;28;20580;-85
2023/02/17 08:58:43;;;;;;;8.68;4.18;;;18.30;49.40;;;;;;5077276;28;20222;-87
2023/02/17 09:01:11;;;;;;;13.32;3.70;;;18.40;49.30;;;;;;5044543;28;20181;-86
2023/02/17 09:03:39;;;;;;;8.85;3.45;;;18.40;49.30;;;;;;5047270;28;20169;-87
2023/02/17 09:06:08;;;;;;;7.97;3.40;;;18.40;49.50;;;;;;5069903;28;20215;-87
2023/02/17 09:08:34;;;;;;;12.32;4.00;;;18.30;49.40;;;;;;5088314;28;20240;-86
2023/02/17 09:11:01;;;;;;;7.82;3.60;;;18.40;49.50;;;;;;5086774;28;20622;-86
2023/02/17 09:13:26;;;;;;;5.75;3.45;;;18.40;49.50;;;;;;5089044;28;20194;-86
2023/02/17 09:15:55;;;;;;;11.73;3.90;;;18.40;49.60;;;;;;5103852;28;20688;-86
2023/02/17 09:18:21;;;;;;;13.60;4.32;;;18.40;49.70;;;;;;5086145;28;20169;-86
2023/02/17 09:20:48;;;;;;;9.40;4.10;;;18.30;49.60;;;;;;5084974;28;20161;-86
2023/02/17 09:23:16;;;;;;;5.85;3.60;;;18.30;49.60;;;;;;5084958;28;20252;-87
2023/02/17 09:25:42;;;;;;;4.65;3.42;;;18.30;49.40;;;;;;5084733;28;20645;-86
2023/02/17 09:28:12;;;;;;;8.50;3.85;;;18.40;49.50;;;;;;5086038;28;20173;-86
2023/02/17 09:30:39;;;;;;;10.00;3.50;;;18.40;49.60;;;;;;5086210;28;20256;-86
2023/02/17 09:33:06;;;;;;;13.25;3.58;;;18.40;49.60;;;;;;5086459;28;20164;-86
2023/02/17 09:35:32;;;;;;;6.60;3.38;;;18.40;49.70;;;;;;5087239;28;20198;-86
2023/02/17 09:38:00;;;;;;;6.30;3.45;;;18.40;49.70;;;;;;5088117;28;20168;-87
2023/02/17 09:40:47;;;;;;;10.32;3.65;;;18.30;49.50;;;;;;5089081;28;20227;-86
2023/02/17 09:43:25;;;;;;;9.50;3.50;;;18.40;49.60;;;;;;5089769;28;20619;-86
2023/02/17 09:46:01;;;;;;;5.72;3.10;;;18.40;49.60;;;;;;5086834;28;20165;-86
2023/02/17 09:48:28;;;;;;;6.43;2.83;;;18.40;49.60;;;;;;5086400;28;20602;-85
2023/02/17 09:51:00;;;;;;;5.68;3.50;;;18.40;49.60;;;;;;5100994;28;20182;-86
2023/02/17 09:53:40;;;;;;;6.15;3.03;;;18.30;49.50;;;;;;5083812;28;20168;-87
2023/02/17 09:56:08;;;;;;;5.45;2.97;;;18.40;49.60;;;;;;5085703;28;20160;-86
2023/02/17 09:58:37;;;;;;;9.40;3.53;;;18.40;49.50;;;;;;5084864;28;20277;-87
2023/02/17 10:01:09;;;;;;;7.13;3.03;;;18.40;50.10;;;;;;5085085;28;20192;-87
2023/02/17 10:03:38;;;;;;;7.15;2.70;;;18.40;49.60;;;;;;5086734;28;20714;-87
2023/02/17 10:06:25;;;;;;;6.90;2.90;;;18.40;49.40;;;;;;5105894;28;20216;-86
2023/02/17 10:09:25;;;;;;;6.13;2.92;;;18.50;49.50;;;;;;5086785;28;20168;-85
2023/02/17 10:12:12;;;;;;;10.40;3.20;;;18.40;49.50;;;;;;5103094;28;20237;-86
2023/02/17 10:15:02;;;;;;;5.72;2.83;;;18.40;49.60;;;;;;5081388;28;20181;-86
2023/02/17 10:17:56;;;;;;;4.32;2.92;;;18.40;49.80;;;;;;5050982;28;20181;-85
2023/02/17 10:20:37;;;;;;;5.15;2.80;;;18.40;49.90;;;;;;5052782;28;20223;-86
2023/02/17 10:23:19;;;;;;;3.83;2.65;;;18.30;49.90;;;;;;5082217;28;20241;-86
2023/02/17 10:26:07;;;;;;;5.38;2.85;;;18.40;49.50;;;;;;5062012;28;20212;-85
2023/02/17 10:28:55;;;;;;;4.22;3.00;;;18.40;49.70;;;;;;5047620;28;20166;-86
2023/02/17 10:31:45;;;;;;;3.67;2.55;;;18.40;49.60;;;;;;5064133;28;20185;-86
2023/02/17 10:34:35;;;;;;;3.67;2.67;;;18.40;49.50;;;;;;5065221;28;20252;-85
2023/02/17 10:37:03;;;;;;;4.55;2.83;;;18.50;49.50;;;;;;5061492;28;20166;-86
2023/02/17 10:39:50;;;;;;;4.57;3.05;;;18.50;49.50;;;;;;5074287;28;20250;-86
2023/02/17 10:42:33;;;;;;;4.60;2.70;;;18.50;49.50;;;;;;5063560;28;20243;-87
2023/02/17 10:45:12;;;;;;;5.57;3.00;;;18.50;50.20;;;;;;5065028;28;20181;-86
2023/02/17 10:47:48;;;;;;;3.75;2.80;;;18.40;49.50;;;;;;5062202;28;20184;-86
2023/02/17 10:50:22;;;;;;;4.15;2.60;;;18.50;49.50;;;;;;5059116;28;20173;-86
2023/02/17 10:52:56;;;;;;;4.45;2.55;;;18.40;49.80;;;;;;5059537;28;20186;-87
2023/02/17 10:55:32;;;;;;;3.92;2.50;;;18.40;49.60;;;;;;5041558;28;20805;-86
2023/02/17 10:58:20;;;;;;;4.78;2.50;;;18.50;49.60;;;;;;5057553;28;20204;-86
2023/02/17 11:00:51;;;;;;;3.50;2.70;;;18.40;49.50;;;;;;5039431;28;20213;-87
2023/02/17 11:03:24;;;;;;;4.50;2.72;;;18.50;49.50;;;;;;5040525;28;20206;-87
2023/02/17 11:06:13;;;;;;;5.03;2.78;;;18.50;49.60;;;;;;5058444;28;20634;-86
2023/02/17 11:08:43;;;;;;;4.50;2.60;;;18.50;49.60;;;;;;5075777;28;20294;-86
2023/02/17 11:11:26;;;;;;;5.55;2.35;;;18.50;49.60;;;;;;5041648;28;20249;-87
2023/02/17 11:14:11;;;;;;;4.25;2.83;;;18.40;49.60;;;;;;5059258;28;20224;-87
2023/02/17 11:16:46;;;;;;;4.55;2.70;;;18.40;49.60;;;;;;5060299;28;20197;-86
2023/02/17 11:19:24;;;;;;;5.65;2.72;;;18.50;49.80;;;;;;5058030;28;20216;-86
2023/02/17 11:21:56;;;;;;;6.18;2.88;;;18.40;49.70;;;;;;5075173;28;20204;-87
2023/02/17 11:24:25;;;;;;;4.22;2.55;;;18.40;49.90;;;;;;5060455;28;20246;-86
2023/02/17 11:27:01;;;;;;;2.83;2.20;;;18.40;49.90;;;;;;5065374;28;20276;-86
2023/02/17 11:29:29;;;;;;;3.00;2.60;;;18.40;49.80;;;;;;5111175;28;20187;-86
2023/02/17 11:31:59;;;;;;;3.33;2.20;;;18.40;49.40;;;;;;5064678;28;20185;-87
2023/02/17 11:34:27;;;;;;;2.60;2.40;;;18.50;49.70;;;;;;5063387;28;20181;-86
2023/02/17 11:37:17;;;;;;;4.03;2.70;;;18.50;49.50;;;;;;5082728;28;20632;-87
2023/02/17 11:39:45;;;;;;;4.15;2.33;;;18.50;49.60;;;;;;5081363;28;20219;-86
2023/02/17 11:42:24;;;;;;;4.57;2.40;;;18.50;49.70;;;;;;5081381;28;20199;-86
2023/02/17 11:44:51;;;;;;;4.45;2.38;;;18.50;49.60;;;;;;5081380;28;20199;-86
2023/02/17 11:47:41;;;;;;;2.75;2.20;;;18.50;49.70;;;;;;5068166;28;20173;-86
2023/02/17 11:50:27;;;;;;;3.10;2.33;;;18.50;49.70;;;;;;5067910;28;20561;-87
2023/02/17 11:53:25;;;;;;;2.70;2.38;;;18.50;49.60;;;;;;5066571;28;20209;-86
2023/02/17 11:56:25;;;;;;;4.03;2.42;;;18.50;49.60;;;;;;5067840;28;20637;-86
2023/02/17 11:59:25;;;;;;;2.95;2.28;;;18.50;49.50;;;;;;5062656;28;20287;-85
2023/02/17 12:02:24;;;;;;;5.20;2.33;;;18.50;49.70;;;;;;5064354;28;20165;-85
2023/02/17 12:05:25;;;;;;;2.97;2.10;;;18.50;49.70;;;;;;5050150;28;20219;-86
2023/02/17 12:08:10;;;;;;;2.90;2.05;;;18.50;49.60;;;;;;5052623;28;20181;-86
2023/02/17 12:11:06;;;;;;;3.03;2.20;;;18.50;49.50;;;;;;5067133;28;20210;-86
2023/02/17 12:14:06;;;;;;;3.00;2.30;;;18.50;49.50;;;;;;5051784;28;20233;-85
2023/02/17 12:17:05;;;;;;;3.00;2.45;;;18.50;49.40;;;;;;5052065;28;20250;-85
2023/02/17 12:20:06;;;;;;;3.85;2.10;;;18.50;49.60;;;;;;5054045;28;20202;-85
2023/02/17 12:23:05;;;;;;;2.63;2.20;;;18.50;49.70;;;;;;5067552;28;20238;-85
2023/02/17 12:25:36;;;;;;;3.22;2.10;;;18.50;49.60;;;;;;5068661;28;20185;-85
2023/02/17 12:28:35;;;;;;;3.30;2.30;;;18.50;49.70;;;;;;5051730;28;20610;-85
2023/02/17 12:31:08;;;;;;;4.15;2.20;;;18.50;49.30;;;;;;5068762;28;20173;-85
2023/02/17 12:33:53;;;;;;;5.72;2.40;;;18.50;49.40;;;;;;5051793;28;20166;-85
2023/02/17 12:36:18;;;;;;;2.22;1.90;;;18.50;49.40;;;;;;5067442;28;20185;-85
2023/02/17 12:38:53;;;;;;;6.72;2.22;;;18.50;49.40;;;;;;5082947;28;20502;-86
2023/02/17 12:41:31;;;;;;;5.95;2.65;;;18.50;49.50;;;;;;5048146;28;20173;-86
2023/02/17 12:44:09;;;;;;;3.80;2.60;;;18.50;49.40;;;;;;5083885;28;20173;-85
2023/02/17 12:46:42;;;;;;;8.15;2.60;;;18.50;49.40;;;;;;5050215;28;20169;-86
2023/02/17 12:49:13;;;;;;;9.65;2.65;;;18.40;49.50;;;;;;5050941;28;20166;-84
2023/02/17 12:51:54;;;;;;;10.85;2.85;;;18.50;49.40;;;;;;5051179;28;20178;-86
2023/02/17 12:54:32;;;;;;;6.47;2.63;;;18.50;49.30;;;;;;5053880;28;20170;-86
2023/02/17 12:57:00;;;;;;;7.18;2.60;;;18.60;49.40;;;;;;5051665;28;20166;-86
2023/02/17 12:59:38;;;;;;;7.85;2.50;;;18.50;49.40;;;;;;5084859;28;20691;-85
2023/02/17 13:02:10;;;;;;;10.82;2.60;;;18.50;49.40;;;;;;5124535;28;20164;-86
2023/02/17 13:04:42;;;;;;;7.90;2.83;;;18.50;49.40;;;;;;5086715;28;20180;-85
2023/02/17 13:07:31;;;;;;;3.70;2.30;;;18.50;49.40;;;;;;5053952;28;20259;-85
2023/02/17 13:10:00;;;;;;;8.20;3.25;;;18.40;49.20;;;;;;5071493;28;20180;-85
2023/02/17 13:12:34;;;;;;;4.72;2.42;;;18.50;49.30;;;;;;5086199;28;20176;-86
2023/02/17 13:15:03;;;;;;;3.90;2.60;;;18.50;49.20;;;;;;5085521;28;20190;-85